sensor_id;sensor_type;location;lat;lon;timestamp;temperature;humidity
23507;DHT22;11930;53.076;18.250;2023-07-13T00:00:38;15.10;99.90
23507;DHT22;11930;53.076;18.250;2023-07-13T00:03:24;15.10;99.90
23507;DHT22;11930;53.076;18.250;2023-07-13T00:05:58;15.10;99.90
23507;DHT22;11930;53.076;18.250;2023-07-13T00:08:24;15.00;99.90
23507;DHT22;11930;53.076;18.250;2023-07-13T00:10:52;15.00;99.90
23507;DHT22;11930;53.076;18.250;2023-07-13T00:13:20;15.00;99.90
23507;DHT22;11930;53.076;18.250;2023-07-13T00:15:46;14.90;99.90
23507;DHT22;11930;53.076;18.250;2023-07-13T00:18:12;14.90;99.90
23507;DHT22;11930;53.076;18.250;2023-07-13T00:20:38;14.80;99.90
23507;DHT22;11930;53.076;18.250;2023-07-13T00:23:04;14.80;99.90
23507;DHT22;11930;53.076;18.250;2023-07-13T00:25:30;14.70;99.90
23507;DHT22;11930;53.076;18.250;2023-07-13T00:27:56;14.70;99.90
23507;DHT22;11930;53.076;18.250;2023-07-13T00:30:23;14.70;99.90
23507;DHT22;11930;53.076;18.250;2023-07-13T00:32:50;14.70;99.90
23507;DHT22;11930;53.076;18.250;2023-07-13T00:35:16;14.70;99.90
23507;DHT22;11930;53.076;18.250;2023-07-13T00:37:43;14.70;99.90
23507;DHT22;11930;53.076;18.250;2023-07-13T00:40:11;14.70;99.90
23507;DHT22;11930;53.076;18.250;2023-07-13T00:42:38;14.70;99.90
23507;DHT22;11930;53.076;18.250;2023-07-13T00:47:39;14.80;99.90
23507;DHT22;11930;53.076;18.250;2023-07-13T00:50:07;14.80;99.90
23507;DHT22;11930;53.076;18.250;2023-07-13T00:52:38;14.80;99.90
23507;DHT22;11930;53.076;18.250;2023-07-13T00:55:07;14.80;99.90
23507;DHT22;11930;53.076;18.250;2023-07-13T00:57:35;14.80;99.90
23507;DHT22;11930;53.076;18.250;2023-07-13T01:00:03;14.70;99.90
23507;DHT22;11930;53.076;18.250;2023-07-13T01:02:39;14.70;99.90
23507;DHT22;11930;53.076;18.250;2023-07-13T01:05:11;14.70;99.90
23507;DHT22;11930;53.076;18.250;2023-07-13T01:07:38;14.60;99.90
23507;DHT22;11930;53.076;18.250;2023-07-13T01:10:07;14.60;99.90
23507;DHT22;11930;53.076;18.250;2023-07-13T01:12:34;14.60;99.90
23507;DHT22;11930;53.076;18.250;2023-07-13T01:15:00;14.50;99.90
23507;DHT22;11930;53.076;18.250;2023-07-13T01:17:28;14.50;99.90
23507;DHT22;11930;53.076;18.250;2023-07-13T01:19:55;14.50;99.90
23507;DHT22;11930;53.076;18.250;2023-07-13T01:22:23;14.40;99.90
23507;DHT22;11930;53.076;18.250;2023-07-13T01:24:53;14.40;99.90
23507;DHT22;11930;53.076;18.250;2023-07-13T01:27:25;14.40;99.90
23507;DHT22;11930;53.076;18.250;2023-07-13T01:29:52;14.40;99.90
23507;DHT22;11930;53.076;18.250;2023-07-13T01:32:23;14.30;99.90
23507;DHT22;11930;53.076;18.250;2023-07-13T01:34:51;14.30;99.90
23507;DHT22;11930;53.076;18.250;2023-07-13T01:37:20;14.30;99.90
23507;DHT22;11930;53.076;18.250;2023-07-13T01:39:47;14.30;99.90
23507;DHT22;11930;53.076;18.250;2023-07-13T01:42:13;14.30;99.90
23507;DHT22;11930;53.076;18.250;2023-07-13T01:44:58;14.30;99.90
23507;DHT22;11930;53.076;18.250;2023-07-13T01:47:25;14.30;99.90
23507;DHT22;11930;53.076;18.250;2023-07-13T01:49:51;14.30;99.90
23507;DHT22;11930;53.076;18.250;2023-07-13T01:52:17;14.20;99.90
23507;DHT22;11930;53.076;18.250;2023-07-13T01:54:43;14.30;99.90
23507;DHT22;11930;53.076;18.250;2023-07-13T01:57:10;14.20;99.90
23507;DHT22;11930;53.076;18.250;2023-07-13T01:59:35;14.30;99.90
23507;DHT22;11930;53.076;18.250;2023-07-13T02:02:02;14.20;99.90
23507;DHT22;11930;53.076;18.250;2023-07-13T02:04:28;14.20;99.90
23507;DHT22;11930;53.076;18.250;2023-07-13T02:06:54;14.20;99.90
23507;DHT22;11930;53.076;18.250;2023-07-13T02:09:21;14.20;99.90
23507;DHT22;11930;53.076;18.250;2023-07-13T02:11:47;14.20;99.90
23507;DHT22;11930;53.076;18.250;2023-07-13T02:14:14;14.10;99.90
23507;DHT22;11930;53.076;18.250;2023-07-13T02:16:41;14.10;99.90
23507;DHT22;11930;53.076;18.250;2023-07-13T02:19:08;14.10;99.90
23507;DHT22;11930;53.076;18.250;2023-07-13T02:21:35;14.10;99.90
23507;DHT22;11930;53.076;18.250;2023-07-13T02:24:01;14.10;99.90
23507;DHT22;11930;53.076;18.250;2023-07-13T02:26:27;14.20;99.90
23507;DHT22;11930;53.076;18.250;2023-07-13T02:28:53;14.20;99.90
23507;DHT22;11930;53.076;18.250;2023-07-13T02:31:20;14.20;99.90
23507;DHT22;11930;53.076;18.250;2023-07-13T02:33:45;14.20;99.90
23507;DHT22;11930;53.076;18.250;2023-07-13T02:36:13;14.20;99.90
23507;DHT22;11930;53.076;18.250;2023-07-13T02:38:43;14.20;99.90
23507;DHT22;11930;53.076;18.250;2023-07-13T02:41:10;14.20;99.90
23507;DHT22;11930;53.076;18.250;2023-07-13T02:43:39;14.20;99.90
23507;DHT22;11930;53.076;18.250;2023-07-13T02:46:09;14.30;99.90
23507;DHT22;11930;53.076;18.250;2023-07-13T02:48:36;14.30;99.90
23507;DHT22;11930;53.076;18.250;2023-07-13T02:51:03;14.30;99.90
23507;DHT22;11930;53.076;18.250;2023-07-13T02:53:29;14.30;99.90
23507;DHT22;11930;53.076;18.250;2023-07-13T02:55:56;14.30;99.90
23507;DHT22;11930;53.076;18.250;2023-07-13T02:58:22;14.30;99.90
23507;DHT22;11930;53.076;18.250;2023-07-13T03:00:48;14.30;99.90
23507;DHT22;11930;53.076;18.250;2023-07-13T03:03:17;14.30;99.90
23507;DHT22;11930;53.076;18.250;2023-07-13T03:05:44;14.30;99.90
23507;DHT22;11930;53.076;18.250;2023-07-13T03:08:17;14.40;99.90
23507;DHT22;11930;53.076;18.250;2023-07-13T03:10:45;14.30;99.90
23507;DHT22;11930;53.076;18.250;2023-07-13T03:13:12;14.30;99.90
23507;DHT22;11930;53.076;18.250;2023-07-13T03:15:38;14.30;99.90
23507;DHT22;11930;53.076;18.250;2023-07-13T03:18:04;14.30;99.90
23507;DHT22;11930;53.076;18.250;2023-07-13T03:20:33;14.30;99.90
23507;DHT22;11930;53.076;18.250;2023-07-13T03:23:01;14.30;99.90
23507;DHT22;11930;53.076;18.250;2023-07-13T03:25:28;14.30;99.90
23507;DHT22;11930;53.076;18.250;2023-07-13T03:27:54;14.40;99.90
23507;DHT22;11930;53.076;18.250;2023-07-13T03:30:21;14.40;99.90
23507;DHT22;11930;53.076;18.250;2023-07-13T03:32:47;14.40;99.90
23507;DHT22;11930;53.076;18.250;2023-07-13T03:35:14;14.50;99.90
23507;DHT22;11930;53.076;18.250;2023-07-13T03:37:40;14.50;99.90
23507;DHT22;11930;53.076;18.250;2023-07-13T03:40:12;14.50;99.90
23507;DHT22;11930;53.076;18.250;2023-07-13T03:42:38;14.60;99.90
23507;DHT22;11930;53.076;18.250;2023-07-13T03:45:05;14.70;99.90
23507;DHT22;11930;53.076;18.250;2023-07-13T03:47:32;15.00;99.90
23507;DHT22;11930;53.076;18.250;2023-07-13T03:50:00;15.40;99.90
23507;DHT22;11930;53.076;18.250;2023-07-13T03:52:26;15.70;99.90
23507;DHT22;11930;53.076;18.250;2023-07-13T03:54:52;16.00;99.90
23507;DHT22;11930;53.076;18.250;2023-07-13T03:57:20;16.10;99.90
23507;DHT22;11930;53.076;18.250;2023-07-13T03:59:46;16.30;99.90
23507;DHT22;11930;53.076;18.250;2023-07-13T04:02:12;16.20;99.90
23507;DHT22;11930;53.076;18.250;2023-07-13T04:04:39;16.30;99.90
23507;DHT22;11930;53.076;18.250;2023-07-13T04:07:06;16.30;99.90
23507;DHT22;11930;53.076;18.250;2023-07-13T04:09:34;16.20;99.90
23507;DHT22;11930;53.076;18.250;2023-07-13T04:12:01;16.20;99.90
23507;DHT22;11930;53.076;18.250;2023-07-13T04:14:27;16.20;99.90
23507;DHT22;11930;53.076;18.250;2023-07-13T04:16:53;16.20;99.90
23507;DHT22;11930;53.076;18.250;2023-07-13T04:19:20;16.20;99.90
23507;DHT22;11930;53.076;18.250;2023-07-13T04:21:47;16.20;99.90
23507;DHT22;11930;53.076;18.250;2023-07-13T04:24:13;16.20;99.90
23507;DHT22;11930;53.076;18.250;2023-07-13T04:26:40;16.30;99.90
23507;DHT22;11930;53.076;18.250;2023-07-13T04:29:08;16.30;99.90
23507;DHT22;11930;53.076;18.250;2023-07-13T04:31:35;16.20;99.90
23507;DHT22;11930;53.076;18.250;2023-07-13T04:34:01;16.20;99.90
23507;DHT22;11930;53.076;18.250;2023-07-13T04:36:29;16.20;99.90
23507;DHT22;11930;53.076;18.250;2023-07-13T04:38:55;16.10;99.90
23507;DHT22;11930;53.076;18.250;2023-07-13T04:41:21;16.10;99.90
23507;DHT22;11930;53.076;18.250;2023-07-13T04:43:49;16.20;99.90
23507;DHT22;11930;53.076;18.250;2023-07-13T04:46:16;16.80;99.90
23507;DHT22;11930;53.076;18.250;2023-07-13T04:48:44;17.50;99.90
23507;DHT22;11930;53.076;18.250;2023-07-13T04:51:11;17.60;99.90
23507;DHT22;11930;53.076;18.250;2023-07-13T04:53:38;18.40;99.90
23507;DHT22;11930;53.076;18.250;2023-07-13T04:56:04;19.30;99.90
23507;DHT22;11930;53.076;18.250;2023-07-13T04:58:31;20.10;99.90
23507;DHT22;11930;53.076;18.250;2023-07-13T05:01:04;20.70;99.90
23507;DHT22;11930;53.076;18.250;2023-07-13T05:03:34;20.90;99.90
23507;DHT22;11930;53.076;18.250;2023-07-13T05:06:04;21.10;99.90
23507;DHT22;11930;53.076;18.250;2023-07-13T05:08:30;21.10;99.90
23507;DHT22;11930;53.076;18.250;2023-07-13T05:10:56;21.10;99.90
23507;DHT22;11930;53.076;18.250;2023-07-13T05:13:24;21.20;99.90
23507;DHT22;11930;53.076;18.250;2023-07-13T05:16:01;21.30;99.90
23507;DHT22;11930;53.076;18.250;2023-07-13T05:18:29;21.40;99.90
23507;DHT22;11930;53.076;18.250;2023-07-13T05:21:04;21.50;99.90
23507;DHT22;11930;53.076;18.250;2023-07-13T05:23:31;21.50;99.90
23507;DHT22;11930;53.076;18.250;2023-07-13T05:25:58;21.50;99.90
23507;DHT22;11930;53.076;18.250;2023-07-13T05:28:25;21.50;99.90
23507;DHT22;11930;53.076;18.250;2023-07-13T05:30:51;21.50;99.90
23507;DHT22;11930;53.076;18.250;2023-07-13T05:33:18;21.40;99.90
23507;DHT22;11930;53.076;18.250;2023-07-13T05:35:43;21.30;99.90
23507;DHT22;11930;53.076;18.250;2023-07-13T05:38:10;21.30;99.90
23507;DHT22;11930;53.076;18.250;2023-07-13T05:40:35;21.30;99.90
23507;DHT22;11930;53.076;18.250;2023-07-13T05:43:02;21.70;99.90
23507;DHT22;11930;53.076;18.250;2023-07-13T05:45:28;22.10;99.90
23507;DHT22;11930;53.076;18.250;2023-07-13T05:47:54;22.70;99.90
23507;DHT22;11930;53.076;18.250;2023-07-13T05:50:20;23.10;99.90
23507;DHT22;11930;53.076;18.250;2023-07-13T05:52:47;23.50;99.90
23507;DHT22;11930;53.076;18.250;2023-07-13T05:55:13;23.90;99.90
23507;DHT22;11930;53.076;18.250;2023-07-13T05:57:39;24.10;99.90
23507;DHT22;11930;53.076;18.250;2023-07-13T06:00:05;24.20;99.90
23507;DHT22;11930;53.076;18.250;2023-07-13T06:02:38;24.00;99.90
23507;DHT22;11930;53.076;18.250;2023-07-13T06:05:04;24.00;99.90
23507;DHT22;11930;53.076;18.250;2023-07-13T06:07:30;24.10;99.90
23507;DHT22;11930;53.076;18.250;2023-07-13T06:09:56;24.40;99.90
23507;DHT22;11930;53.076;18.250;2023-07-13T06:12:23;24.60;99.90
23507;DHT22;11930;53.076;18.250;2023-07-13T06:14:49;24.80;99.90
23507;DHT22;11930;53.076;18.250;2023-07-13T06:17:15;24.80;99.90
23507;DHT22;11930;53.076;18.250;2023-07-13T06:19:41;24.90;99.90
23507;DHT22;11930;53.076;18.250;2023-07-13T06:22:07;25.00;99.90
23507;DHT22;11930;53.076;18.250;2023-07-13T06:24:33;24.90;99.90
23507;DHT22;11930;53.076;18.250;2023-07-13T06:26:59;24.80;99.90
23507;DHT22;11930;53.076;18.250;2023-07-13T06:29:25;24.50;99.90
23507;DHT22;11930;53.076;18.250;2023-07-13T06:31:51;24.20;99.90
23507;DHT22;11930;53.076;18.250;2023-07-13T06:34:17;24.00;99.90
23507;DHT22;11930;53.076;18.250;2023-07-13T06:36:44;23.70;99.90
23507;DHT22;11930;53.076;18.250;2023-07-13T06:39:10;23.70;99.90
23507;DHT22;11930;53.076;18.250;2023-07-13T06:41:36;23.40;99.90
23507;DHT22;11930;53.076;18.250;2023-07-13T06:44:07;23.20;99.90
23507;DHT22;11930;53.076;18.250;2023-07-13T06:46:33;23.10;99.90
23507;DHT22;11930;53.076;18.250;2023-07-13T06:48:59;22.80;99.90
23507;DHT22;11930;53.076;18.250;2023-07-13T06:51:25;22.70;99.90
23507;DHT22;11930;53.076;18.250;2023-07-13T06:53:52;22.50;99.90
23507;DHT22;11930;53.076;18.250;2023-07-13T06:56:18;22.40;99.90
23507;DHT22;11930;53.076;18.250;2023-07-13T06:58:44;22.20;99.90
23507;DHT22;11930;53.076;18.250;2023-07-13T07:01:10;22.10;99.90
23507;DHT22;11930;53.076;18.250;2023-07-13T07:03:36;22.10;99.90
23507;DHT22;11930;53.076;18.250;2023-07-13T07:06:17;22.10;99.90
23507;DHT22;11930;53.076;18.250;2023-07-13T07:08:43;22.10;99.90
23507;DHT22;11930;53.076;18.250;2023-07-13T07:11:21;22.20;99.90
23507;DHT22;11930;53.076;18.250;2023-07-13T07:13:48;22.20;99.90
23507;DHT22;11930;53.076;18.250;2023-07-13T07:16:16;22.30;99.90
23507;DHT22;11930;53.076;18.250;2023-07-13T07:18:41;22.50;99.90
23507;DHT22;11930;53.076;18.250;2023-07-13T07:21:08;22.60;99.90
23507;DHT22;11930;53.076;18.250;2023-07-13T07:23:34;22.90;99.90
23507;DHT22;11930;53.076;18.250;2023-07-13T07:26:00;23.30;99.90
23507;DHT22;11930;53.076;18.250;2023-07-13T07:28:26;23.70;99.90
23507;DHT22;11930;53.076;18.250;2023-07-13T07:30:55;24.10;99.90
23507;DHT22;11930;53.076;18.250;2023-07-13T07:33:22;24.10;99.90
23507;DHT22;11930;53.076;18.250;2023-07-13T07:35:49;24.10;99.90
23507;DHT22;11930;53.076;18.250;2023-07-13T07:38:15;24.10;99.90
23507;DHT22;11930;53.076;18.250;2023-07-13T07:40:42;24.30;99.90
23507;DHT22;11930;53.076;18.250;2023-07-13T07:43:09;24.90;99.90
23507;DHT22;11930;53.076;18.250;2023-07-13T07:45:36;24.90;99.90
23507;DHT22;11930;53.076;18.250;2023-07-13T07:48:04;25.40;99.90
23507;DHT22;11930;53.076;18.250;2023-07-13T07:50:31;25.70;99.90
23507;DHT22;11930;53.076;18.250;2023-07-13T07:52:57;25.90;99.90
23507;DHT22;11930;53.076;18.250;2023-07-13T07:55:24;26.00;99.90
23507;DHT22;11930;53.076;18.250;2023-07-13T07:57:52;26.10;99.90
23507;DHT22;11930;53.076;18.250;2023-07-13T08:00:18;26.00;99.90
23507;DHT22;11930;53.076;18.250;2023-07-13T08:02:47;25.70;99.90
23507;DHT22;11930;53.076;18.250;2023-07-13T08:05:14;25.40;99.90
23507;DHT22;11930;53.076;18.250;2023-07-13T08:07:40;25.20;99.90
23507;DHT22;11930;53.076;18.250;2023-07-13T08:10:07;25.00;99.90
23507;DHT22;11930;53.076;18.250;2023-07-13T08:12:35;24.60;99.90
23507;DHT22;11930;53.076;18.250;2023-07-13T08:15:01;24.40;99.90
23507;DHT22;11930;53.076;18.250;2023-07-13T08:17:27;24.20;99.90
23507;DHT22;11930;53.076;18.250;2023-07-13T08:19:53;24.00;99.90
23507;DHT22;11930;53.076;18.250;2023-07-13T08:22:19;23.90;99.90
23507;DHT22;11930;53.076;18.250;2023-07-13T08:24:45;23.90;99.90
23507;DHT22;11930;53.076;18.250;2023-07-13T08:27:13;24.10;99.90
23507;DHT22;11930;53.076;18.250;2023-07-13T08:29:39;24.10;99.90
23507;DHT22;11930;53.076;18.250;2023-07-13T08:32:07;24.20;99.90
23507;DHT22;11930;53.076;18.250;2023-07-13T08:34:36;24.70;99.90
23507;DHT22;11930;53.076;18.250;2023-07-13T08:37:03;24.70;99.90
23507;DHT22;11930;53.076;18.250;2023-07-13T08:39:30;25.20;99.90
23507;DHT22;11930;53.076;18.250;2023-07-13T08:42:02;25.60;99.90
23507;DHT22;11930;53.076;18.250;2023-07-13T08:47:23;26.90;96.90
23507;DHT22;11930;53.076;18.250;2023-07-13T08:49:50;27.40;95.00
23507;DHT22;11930;53.076;18.250;2023-07-13T08:54:58;28.50;80.80
23507;DHT22;11930;53.076;18.250;2023-07-13T08:57:32;28.40;73.20
23507;DHT22;11930;53.076;18.250;2023-07-13T08:59:59;28.40;72.50
23507;DHT22;11930;53.076;18.250;2023-07-13T09:10:28;27.20;83.30
23507;DHT22;11930;53.076;18.250;2023-07-13T09:15:44;27.40;83.70
23507;DHT22;11930;53.076;18.250;2023-07-13T09:18:16;27.40;80.40
23507;DHT22;11930;53.076;18.250;2023-07-13T09:20:51;27.50;83.50
23507;DHT22;11930;53.076;18.250;2023-07-13T09:23:23;27.60;79.90
23507;DHT22;11930;53.076;18.250;2023-07-13T09:25:53;27.70;82.90
23507;DHT22;11930;53.076;18.250;2023-07-13T09:28:26;28.10;86.30
23507;DHT22;11930;53.076;18.250;2023-07-13T09:31:02;28.40;78.70
23507;DHT22;11930;53.076;18.250;2023-07-13T09:33:29;28.50;81.10
23507;DHT22;11930;53.076;18.250;2023-07-13T09:36:00;28.40;75.90
23507;DHT22;11930;53.076;18.250;2023-07-13T09:38:28;28.40;76.90
23507;DHT22;11930;53.076;18.250;2023-07-13T09:46:36;27.90;75.80
23507;DHT22;11930;53.076;18.250;2023-07-13T09:49:02;27.60;79.30
23507;DHT22;11930;53.076;18.250;2023-07-13T09:51:28;27.10;91.40
23507;DHT22;11930;53.076;18.250;2023-07-13T09:53:54;26.50;94.20
23507;DHT22;11930;53.076;18.250;2023-07-13T09:56:23;25.70;99.80
23507;DHT22;11930;53.076;18.250;2023-07-13T09:58:50;25.60;99.30
23507;DHT22;11930;53.076;18.250;2023-07-13T10:01:16;25.10;99.90
23507;DHT22;11930;53.076;18.250;2023-07-13T10:03:56;24.10;99.90
23507;DHT22;11930;53.076;18.250;2023-07-13T10:06:22;22.70;99.90
23507;DHT22;11930;53.076;18.250;2023-07-13T10:08:55;21.50;99.90
23507;DHT22;11930;53.076;18.250;2023-07-13T10:11:29;20.80;99.90
23507;DHT22;11930;53.076;18.250;2023-07-13T10:13:58;20.40;99.90
23507;DHT22;11930;53.076;18.250;2023-07-13T10:16:28;20.30;99.90
23507;DHT22;11930;53.076;18.250;2023-07-13T10:19:23;20.10;99.90
23507;DHT22;11930;53.076;18.250;2023-07-13T10:24:47;20.10;99.90
23507;DHT22;11930;53.076;18.250;2023-07-13T10:27:28;20.20;99.90
23507;DHT22;11930;53.076;18.250;2023-07-13T10:32:46;20.20;99.90
23507;DHT22;11930;53.076;18.250;2023-07-13T10:35:15;20.30;99.90
23507;DHT22;11930;53.076;18.250;2023-07-13T10:38:04;20.30;99.90
23507;DHT22;11930;53.076;18.250;2023-07-13T10:40:40;20.30;99.90
23507;DHT22;11930;53.076;18.250;2023-07-13T10:43:24;20.40;99.90
23507;DHT22;11930;53.076;18.250;2023-07-13T10:45:53;20.50;99.90
23507;DHT22;11930;53.076;18.250;2023-07-13T10:48:21;20.50;99.90
23507;DHT22;11930;53.076;18.250;2023-07-13T10:50:51;20.50;99.90
23507;DHT22;11930;53.076;18.250;2023-07-13T10:53:36;20.40;99.90
23507;DHT22;11930;53.076;18.250;2023-07-13T10:56:05;20.40;99.90
23507;DHT22;11930;53.076;18.250;2023-07-13T10:58:41;20.40;99.90
23507;DHT22;11930;53.076;18.250;2023-07-13T11:01:12;20.40;99.90
23507;DHT22;11930;53.076;18.250;2023-07-13T11:04:01;20.40;99.90
23507;DHT22;11930;53.076;18.250;2023-07-13T11:06:39;20.60;99.90
23507;DHT22;11930;53.076;18.250;2023-07-13T11:09:36;20.70;99.90
23507;DHT22;11930;53.076;18.250;2023-07-13T11:12:50;20.90;99.90
23507;DHT22;11930;53.076;18.250;2023-07-13T11:17:37;21.00;99.90
23507;DHT22;11930;53.076;18.250;2023-07-13T11:22:48;21.10;99.90
23507;DHT22;11930;53.076;18.250;2023-07-13T11:27:50;21.30;99.90
23507;DHT22;11930;53.076;18.250;2023-07-13T11:36:04;21.90;99.90
23507;DHT22;11930;53.076;18.250;2023-07-13T11:38:40;22.10;99.90
23507;DHT22;11930;53.076;18.250;2023-07-13T11:41:17;22.30;99.90
23507;DHT22;11930;53.076;18.250;2023-07-13T11:43:48;22.50;99.90
23507;DHT22;11930;53.076;18.250;2023-07-13T11:46:22;22.60;99.90
23507;DHT22;11930;53.076;18.250;2023-07-13T11:48:49;22.70;99.90
23507;DHT22;11930;53.076;18.250;2023-07-13T11:51:31;22.90;99.90
23507;DHT22;11930;53.076;18.250;2023-07-13T11:54:04;22.90;99.90
23507;DHT22;11930;53.076;18.250;2023-07-13T11:56:31;22.90;99.90
23507;DHT22;11930;53.076;18.250;2023-07-13T11:59:05;22.90;99.90
23507;DHT22;11930;53.076;18.250;2023-07-13T12:01:32;22.90;99.90
23507;DHT22;11930;53.076;18.250;2023-07-13T12:04:02;22.90;99.90
23507;DHT22;11930;53.076;18.250;2023-07-13T12:06:34;22.80;99.90
23507;DHT22;11930;53.076;18.250;2023-07-13T12:09:09;22.80;99.90
23507;DHT22;11930;53.076;18.250;2023-07-13T12:11:43;22.70;99.90
23507;DHT22;11930;53.076;18.250;2023-07-13T12:14:16;22.70;99.90
23507;DHT22;11930;53.076;18.250;2023-07-13T12:16:43;22.70;99.90
23507;DHT22;11930;53.076;18.250;2023-07-13T12:19:20;22.80;99.90
23507;DHT22;11930;53.076;18.250;2023-07-13T12:21:46;22.90;99.90
23507;DHT22;11930;53.076;18.250;2023-07-13T12:24:20;23.00;99.90
23507;DHT22;11930;53.076;18.250;2023-07-13T12:27:04;23.20;99.90
23507;DHT22;11930;53.076;18.250;2023-07-13T12:29:33;23.50;99.90
23507;DHT22;11930;53.076;18.250;2023-07-13T12:32:00;23.80;99.90
23507;DHT22;11930;53.076;18.250;2023-07-13T12:34:26;24.30;99.90
23507;DHT22;11930;53.076;18.250;2023-07-13T12:36:59;24.30;99.90
23507;DHT22;11930;53.076;18.250;2023-07-13T12:39:36;24.50;99.90
23507;DHT22;11930;53.076;18.250;2023-07-13T12:42:31;24.70;99.90
23507;DHT22;11930;53.076;18.250;2023-07-13T12:45:20;24.80;99.90
23507;DHT22;11930;53.076;18.250;2023-07-13T12:47:54;25.00;99.90
23507;DHT22;11930;53.076;18.250;2023-07-13T12:50:28;25.00;99.90
23507;DHT22;11930;53.076;18.250;2023-07-13T12:53:01;25.10;99.90
23507;DHT22;11930;53.076;18.250;2023-07-13T12:55:29;25.30;99.90
23507;DHT22;11930;53.076;18.250;2023-07-13T12:57:59;25.60;99.50
23507;DHT22;11930;53.076;18.250;2023-07-13T13:00:35;25.60;99.50
23507;DHT22;11930;53.076;18.250;2023-07-13T13:03:06;25.70;99.90
23507;DHT22;11930;53.076;18.250;2023-07-13T13:05:33;25.80;95.70
23507;DHT22;11930;53.076;18.250;2023-07-13T13:07:59;25.80;95.80
23507;DHT22;11930;53.076;18.250;2023-07-13T13:10:26;25.70;93.80
23507;DHT22;11930;53.076;18.250;2023-07-13T13:12:52;25.50;92.30
23507;DHT22;11930;53.076;18.250;2023-07-13T13:15:19;25.20;93.40
23507;DHT22;11930;53.076;18.250;2023-07-13T13:17:45;25.00;95.30
23507;DHT22;11930;53.076;18.250;2023-07-13T13:20:21;24.60;99.30
23507;DHT22;11930;53.076;18.250;2023-07-13T13:22:47;24.20;99.90
23507;DHT22;11930;53.076;18.250;2023-07-13T13:25:15;23.80;99.90
23507;DHT22;11930;53.076;18.250;2023-07-13T13:27:42;23.30;99.90
23507;DHT22;11930;53.076;18.250;2023-07-13T13:30:13;22.70;99.90
23507;DHT22;11930;53.076;18.250;2023-07-13T13:32:44;22.20;99.90
23507;DHT22;11930;53.076;18.250;2023-07-13T13:35:20;21.50;99.90
23507;DHT22;11930;53.076;18.250;2023-07-13T13:37:47;21.30;99.90
23507;DHT22;11930;53.076;18.250;2023-07-13T13:40:19;20.80;99.90
23507;DHT22;11930;53.076;18.250;2023-07-13T13:42:46;20.70;99.90
23507;DHT22;11930;53.076;18.250;2023-07-13T13:45:12;20.60;99.90
23507;DHT22;11930;53.076;18.250;2023-07-13T13:47:39;20.60;99.90
23507;DHT22;11930;53.076;18.250;2023-07-13T13:50:32;20.70;99.90
23507;DHT22;11930;53.076;18.250;2023-07-13T13:52:58;20.80;99.90
23507;DHT22;11930;53.076;18.250;2023-07-13T13:55:24;20.90;99.90
23507;DHT22;11930;53.076;18.250;2023-07-13T13:57:50;21.10;99.90
23507;DHT22;11930;53.076;18.250;2023-07-13T14:00:17;21.20;99.90
23507;DHT22;11930;53.076;18.250;2023-07-13T14:02:47;21.40;99.90
23507;DHT22;11930;53.076;18.250;2023-07-13T14:05:15;21.50;99.90
23507;DHT22;11930;53.076;18.250;2023-07-13T14:07:43;21.70;99.90
23507;DHT22;11930;53.076;18.250;2023-07-13T14:10:15;21.80;99.90
23507;DHT22;11930;53.076;18.250;2023-07-13T14:12:48;21.90;99.90
23507;DHT22;11930;53.076;18.250;2023-07-13T14:15:29;22.00;99.90
23507;DHT22;11930;53.076;18.250;2023-07-13T14:17:56;22.00;99.90
23507;DHT22;11930;53.076;18.250;2023-07-13T14:20:25;22.10;99.90
23507;DHT22;11930;53.076;18.250;2023-07-13T14:22:53;22.20;99.90
23507;DHT22;11930;53.076;18.250;2023-07-13T14:25:21;22.50;99.90
23507;DHT22;11930;53.076;18.250;2023-07-13T14:27:49;22.40;99.90
23507;DHT22;11930;53.076;18.250;2023-07-13T14:30:19;22.60;99.90
23507;DHT22;11930;53.076;18.250;2023-07-13T14:32:46;22.70;99.90
23507;DHT22;11930;53.076;18.250;2023-07-13T14:35:13;23.00;99.90
23507;DHT22;11930;53.076;18.250;2023-07-13T14:37:40;23.10;99.90
23507;DHT22;11930;53.076;18.250;2023-07-13T14:40:21;23.20;99.90
23507;DHT22;11930;53.076;18.250;2023-07-13T14:42:49;23.30;99.90
23507;DHT22;11930;53.076;18.250;2023-07-13T14:45:18;23.40;99.90
23507;DHT22;11930;53.076;18.250;2023-07-13T14:47:44;23.40;99.90
23507;DHT22;11930;53.076;18.250;2023-07-13T14:50:20;23.30;99.90
23507;DHT22;11930;53.076;18.250;2023-07-13T14:52:47;23.30;99.90
23507;DHT22;11930;53.076;18.250;2023-07-13T14:55:17;23.30;99.90
23507;DHT22;11930;53.076;18.250;2023-07-13T14:57:43;23.40;99.90
23507;DHT22;11930;53.076;18.250;2023-07-13T15:02:39;23.80;99.90
23507;DHT22;11930;53.076;18.250;2023-07-13T15:05:16;24.00;99.90
23507;DHT22;11930;53.076;18.250;2023-07-13T15:07:42;24.20;99.90
23507;DHT22;11930;53.076;18.250;2023-07-13T15:10:20;24.40;99.90
23507;DHT22;11930;53.076;18.250;2023-07-13T15:12:46;24.50;99.90
23507;DHT22;11930;53.076;18.250;2023-07-13T15:15:14;24.50;99.90
23507;DHT22;11930;53.076;18.250;2023-07-13T15:17:42;24.50;99.90
23507;DHT22;11930;53.076;18.250;2023-07-13T15:20:23;24.50;99.90
23507;DHT22;11930;53.076;18.250;2023-07-13T15:22:51;24.50;99.90
23507;DHT22;11930;53.076;18.250;2023-07-13T15:25:25;24.50;99.90
23507;DHT22;11930;53.076;18.250;2023-07-13T15:27:52;24.50;99.90
23507;DHT22;11930;53.076;18.250;2023-07-13T15:30:20;24.50;99.90
23507;DHT22;11930;53.076;18.250;2023-07-13T15:32:46;24.40;99.90
23507;DHT22;11930;53.076;18.250;2023-07-13T15:35:17;24.30;99.90
23507;DHT22;11930;53.076;18.250;2023-07-13T15:37:44;24.20;99.90
23507;DHT22;11930;53.076;18.250;2023-07-13T15:40:11;24.10;99.90
23507;DHT22;11930;53.076;18.250;2023-07-13T15:42:39;24.00;99.90
23507;DHT22;11930;53.076;18.250;2023-07-13T15:45:17;23.80;99.90
23507;DHT22;11930;53.076;18.250;2023-07-13T15:47:47;23.70;99.90
23507;DHT22;11930;53.076;18.250;2023-07-13T15:50:16;23.60;99.90
23507;DHT22;11930;53.076;18.250;2023-07-13T15:52:45;23.60;99.90
23507;DHT22;11930;53.076;18.250;2023-07-13T15:55:13;23.70;99.90
23507;DHT22;11930;53.076;18.250;2023-07-13T15:57:44;23.70;99.90
23507;DHT22;11930;53.076;18.250;2023-07-13T16:00:22;23.70;99.90
23507;DHT22;11930;53.076;18.250;2023-07-13T16:02:49;23.80;99.90
23507;DHT22;11930;53.076;18.250;2023-07-13T16:05:17;23.80;99.90
23507;DHT22;11930;53.076;18.250;2023-07-13T16:07:47;23.90;99.90
23507;DHT22;11930;53.076;18.250;2023-07-13T16:10:16;24.00;99.90
23507;DHT22;11930;53.076;18.250;2023-07-13T16:12:43;24.00;99.90